Decoded Metar for KVLD (VALDOSTA REGIONA in GA, USA) (IATA:VLD) | Meteo·Mobile Aviation Weather
aviador You're here:

KVLD Decoded Metar

VALDOSTA REGIONA in GA, USA
Report Time2019-02-17 16:13:00
UTC Time2019-02-17 16:22:30
Flight Rules vfr VFR
Wind180° at 07 kt
W.Decomp.*RWY 17: 6.8 kt HW 1.8 kt RCW
RWY 22: 5.7 kt HW 4 kt LCW
RWY 13: 4.0 kt HW 5.7 kt RCW
W.Rank180° ranks 1
Current wind is above 180° avg. (6.2)
Visibility9999 m
Phenomena:N/A
Clouds:Scattered 009 Hf
Expected CloudBase > 1,200 ft AGL from Temp-Dew spread
CeilingNone
Temp21°C (ISA +6)
Dew Point18°C (83% RH)
QNH1015 hPa
Density Alt1,158 ft
Elevation203 ft
Report Wrong Elevation
Raw Report
KVLD 171613Z 18007KT 10SM SCT009 21/18 A2997 RMK AO2 T02110183=

Extra information for KVLD:More info

Metar Taf Metar & Taf Last 4 Metars F.Rules Stats Wind Profile Meteogram Temp Stats Airport Information Weather charts Add Link Nearby VenuesMetar ALERT Operation Metar Decoded Social comments

AIRNAV info for KVLD
True Flight Aerospace